createdAt,value
2023-07-03T00:00:19.625Z,14.73
2023-07-03T00:02:52.543Z,14.68
2023-07-03T00:05:21.766Z,13.27
2023-07-03T00:07:49.251Z,15.38
2023-07-03T00:10:17.878Z,14.45
2023-07-03T00:12:45.827Z,13.85
2023-07-03T00:15:13.436Z,13.82
2023-07-03T00:17:41.319Z,15.45
2023-07-03T00:20:12.669Z,12.68
2023-07-03T00:22:40.219Z,13.60
2023-07-03T00:25:08.437Z,17.75
2023-07-03T00:27:35.920Z,15.07
2023-07-03T00:30:06.958Z,15.70
2023-07-03T00:32:34.912Z,14.00
2023-07-03T00:35:02.322Z,14.65
2023-07-03T00:37:30.214Z,13.27
2023-07-03T00:39:57.623Z,17.38
2023-07-03T00:42:26.271Z,14.50
2023-07-03T00:44:53.863Z,13.30
2023-07-03T00:47:22.581Z,14.25
2023-07-03T00:49:51.491Z,12.25
2023-07-03T00:52:19.498Z,13.68
2023-07-03T00:54:46.934Z,15.77
2023-07-03T00:57:16.780Z,15.02
2023-07-03T00:59:45.458Z,14.60
2023-07-03T01:02:23.368Z,13.98
2023-07-03T01:05:05.257Z,15.90
2023-07-03T01:07:36.805Z,13.73
2023-07-03T01:10:10.813Z,14.75
2023-07-03T01:12:42.197Z,14.63
2023-07-03T01:15:13.951Z,17.17
2023-07-03T01:17:44.033Z,11.43
2023-07-03T01:20:16.387Z,14.38
2023-07-03T01:23:27.102Z,13.38
2023-07-03T01:25:56.290Z,16.45
2023-07-03T01:28:26.307Z,15.32
2023-07-03T01:30:56.233Z,16.92
2023-07-03T01:33:32.101Z,12.25
2023-07-03T01:36:01.118Z,15.75
2023-07-03T01:38:32.461Z,15.05
2023-07-03T01:41:00.930Z,16.73
2023-07-03T01:43:29.174Z,17.58
2023-07-03T01:45:56.602Z,13.77
2023-07-03T01:48:24.118Z,15.70
2023-07-03T01:50:51.889Z,17.33
2023-07-03T01:53:32.814Z,16.50
2023-07-03T01:56:12.037Z,13.90
2023-07-03T01:58:45.201Z,15.00
2023-07-03T02:01:19.738Z,15.35
2023-07-03T02:04:08.409Z,16.55
2023-07-03T02:06:40.641Z,13.55
2023-07-03T02:09:09.915Z,16.38
2023-07-03T02:11:41.713Z,14.52
2023-07-03T02:14:11.186Z,18.00
2023-07-03T02:16:40.199Z,16.65
2023-07-03T02:19:07.967Z,17.40
2023-07-03T02:21:39.362Z,18.23
2023-07-03T02:24:07.140Z,16.63
2023-07-03T02:26:34.654Z,15.13
2023-07-03T02:29:02.111Z,15.90
2023-07-03T02:31:29.803Z,17.38
2023-07-03T02:33:57.417Z,14.52
2023-07-03T02:36:30.390Z,16.40
2023-07-03T02:38:58.803Z,17.55
2023-07-03T02:41:30.060Z,16.52
2023-07-03T02:43:57.711Z,14.68
2023-07-03T02:46:27.093Z,15.98
2023-07-03T02:48:55.717Z,14.55
2023-07-03T02:51:23.756Z,17.95
2023-07-03T02:53:54.220Z,14.02
2023-07-03T02:56:21.831Z,13.48
2023-07-03T02:58:49.777Z,16.90
2023-07-03T03:01:23.463Z,19.02
2023-07-03T03:03:52.849Z,15.27
2023-07-03T03:06:20.622Z,16.52
2023-07-03T03:08:50.033Z,18.08
2023-07-03T03:11:18.556Z,14.68
2023-07-03T03:13:48.832Z,16.70
2023-07-03T03:16:17.409Z,17.05
2023-07-03T03:18:45.764Z,16.17
2023-07-03T03:21:13.212Z,13.20
2023-07-03T03:23:40.878Z,18.80
2023-07-03T03:26:08.309Z,13.73
2023-07-03T03:28:35.956Z,14.75
2023-07-03T03:31:04.564Z,16.75
2023-07-03T03:33:34.905Z,15.75
2023-07-03T03:36:02.296Z,15.48
2023-07-03T03:38:29.745Z,14.23
2023-07-03T03:41:00.624Z,13.68
2023-07-03T03:43:32.058Z,16.40
2023-07-03T03:46:01.856Z,15.85
2023-07-03T03:48:31.867Z,14.48
2023-07-03T03:51:02.212Z,12.52
2023-07-03T03:53:31.691Z,15.95
2023-07-03T03:55:59.113Z,12.90
2023-07-03T03:58:28.763Z,15.90
2023-07-03T04:00:56.260Z,13.15
2023-07-03T04:03:24.256Z,12.43
2023-07-03T04:05:52.156Z,13.85
2023-07-03T04:08:19.774Z,15.13
2023-07-03T04:10:47.230Z,19.02
2023-07-03T04:13:14.682Z,14.00
2023-07-03T04:16:08.333Z,14.80
2023-07-03T04:18:35.808Z,12.50
2023-07-03T04:21:03.254Z,15.52
2023-07-03T04:23:30.978Z,14.88
2023-07-03T04:25:58.719Z,13.25
2023-07-03T04:28:26.563Z,14.30
2023-07-03T04:30:53.994Z,18.15
2023-07-03T04:33:23.827Z,14.02
2023-07-03T04:35:51.590Z,14.02
2023-07-03T04:38:19.292Z,15.38
2023-07-03T04:40:48.410Z,14.18
2023-07-03T04:43:17.318Z,15.95
2023-07-03T04:45:50.015Z,15.05
2023-07-03T04:48:18.711Z,17.92
2023-07-03T04:50:50.606Z,21.00
2023-07-03T04:53:22.518Z,17.80
2023-07-03T04:58:18.563Z,16.92
2023-07-03T05:00:48.100Z,16.98
2023-07-03T05:03:18.570Z,20.10
2023-07-03T05:05:46.082Z,13.40
2023-07-03T05:08:13.634Z,15.70
2023-07-03T05:10:41.059Z,19.38
2023-07-03T05:13:08.487Z,14.18
2023-07-03T05:15:35.962Z,16.77
2023-07-03T05:18:03.580Z,17.13
2023-07-03T05:20:31.147Z,15.95
2023-07-03T05:23:00.962Z,18.80
2023-07-03T05:25:28.373Z,15.70
2023-07-03T05:27:55.760Z,15.90
2023-07-03T05:30:23.212Z,17.13
2023-07-03T05:32:51.555Z,16.40
2023-07-03T05:35:19.788Z,16.50
2023-07-03T05:37:47.190Z,14.80
2023-07-03T05:40:16.262Z,16.27
2023-07-03T05:42:44.416Z,16.55
2023-07-03T05:45:12.634Z,18.02
2023-07-03T05:47:40.241Z,18.63
2023-07-03T05:50:08.475Z,20.73
2023-07-03T05:52:37.848Z,16.23
2023-07-03T05:55:06.273Z,17.02
2023-07-03T05:57:36.774Z,19.67
2023-07-03T06:00:09.893Z,17.63
2023-07-03T06:02:44.508Z,18.30
2023-07-03T06:07:40.918Z,15.65
2023-07-03T06:10:09.336Z,15.85
2023-07-03T06:12:36.737Z,21.77
2023-07-03T06:15:04.437Z,14.48
2023-07-03T06:17:32.441Z,17.92
2023-07-03T06:20:00.065Z,18.70
2023-07-03T06:22:27.541Z,15.85
2023-07-03T06:24:54.895Z,16.13
2023-07-03T06:27:22.309Z,15.10
2023-07-03T06:29:49.825Z,16.88
2023-07-03T06:32:18.084Z,15.27
2023-07-03T06:34:45.506Z,18.30
2023-07-03T06:37:12.868Z,13.35
2023-07-03T06:39:40.423Z,16.58
2023-07-03T06:42:08.512Z,15.70
2023-07-03T06:44:38.488Z,15.45
2023-07-03T06:47:06.372Z,15.45
2023-07-03T06:49:33.881Z,15.07
2023-07-03T06:52:01.329Z,21.23
2023-07-03T06:54:28.771Z,12.13
2023-07-03T06:56:56.113Z,14.15
2023-07-03T06:59:23.551Z,14.60
2023-07-03T07:01:51.267Z,15.35
2023-07-03T07:04:18.930Z,16.98
2023-07-03T07:06:46.581Z,13.38
2023-07-03T07:09:13.984Z,13.25
2023-07-03T07:11:41.553Z,13.73
2023-07-03T07:14:09.050Z,16.70
2023-07-03T07:16:38.091Z,16.45
2023-07-03T07:19:09.355Z,15.13
2023-07-03T07:21:40.007Z,15.73
2023-07-03T07:24:15.749Z,15.43
2023-07-03T07:26:43.857Z,13.85
2023-07-03T07:29:11.496Z,15.35
2023-07-03T07:31:41.933Z,17.15
2023-07-03T07:34:11.924Z,12.20
2023-07-03T07:36:40.852Z,14.02
2023-07-03T07:39:09.454Z,14.50
2023-07-03T07:41:37.455Z,16.42
2023-07-03T07:44:06.181Z,13.02
2023-07-03T07:46:36.698Z,15.20
2023-07-03T07:49:04.414Z,12.68
2023-07-03T07:51:32.456Z,11.25
2023-07-03T07:54:00.211Z,16.73
2023-07-03T07:56:30.920Z,15.07
2023-07-03T07:58:59.259Z,15.85
2023-07-03T08:01:27.196Z,16.85
2023-07-03T08:03:54.909Z,15.52
2023-07-03T08:06:22.461Z,12.25
2023-07-03T08:08:52.058Z,10.27
2023-07-03T08:11:19.579Z,12.00
2023-07-03T08:13:47.111Z,10.15
2023-07-03T08:16:16.754Z,16.50
2023-07-03T08:18:46.974Z,10.88
2023-07-03T08:21:16.047Z,12.70
2023-07-03T08:26:35.452Z,11.32
2023-07-03T08:29:02.944Z,14.90
2023-07-03T08:31:30.414Z,12.32
2023-07-03T08:33:58.025Z,13.65
2023-07-03T08:38:55.932Z,10.52
2023-07-03T08:41:23.816Z,13.35
2023-07-03T08:43:57.817Z,10.90
2023-07-03T08:46:27.994Z,13.60
2023-07-03T08:48:58.689Z,13.20
2023-07-03T08:51:29.457Z,10.82
2023-07-03T08:54:05.524Z,12.00
2023-07-03T08:56:35.295Z,12.93
2023-07-03T08:59:05.321Z,11.75
2023-07-03T09:01:57.015Z,12.23
2023-07-03T09:04:29.420Z,11.00
2023-07-03T09:07:06.793Z,9.57
2023-07-03T09:09:51.713Z,11.77
2023-07-03T09:12:25.179Z,10.85
2023-07-03T09:15:15.687Z,12.60
2023-07-03T09:17:44.196Z,12.70
2023-07-03T09:20:14.082Z,10.85
2023-07-03T09:22:51.107Z,12.43
2023-07-03T09:25:24.208Z,9.85
2023-07-03T09:27:55.886Z,11.82
2023-07-03T09:32:50.777Z,11.35
2023-07-03T09:35:21.208Z,13.70
2023-07-03T09:37:58.016Z,14.10
2023-07-03T09:40:26.612Z,11.20
2023-07-03T09:42:54.876Z,10.48
2023-07-03T09:45:27.199Z,12.90
2023-07-03T09:48:00.741Z,12.15
2023-07-03T09:50:57.345Z,14.20
2023-07-03T09:53:28.381Z,17.52
2023-07-03T09:55:57.833Z,12.63
2023-07-03T09:58:27.857Z,13.13
2023-07-03T10:00:57.847Z,12.43
2023-07-03T10:03:32.806Z,13.60
2023-07-03T10:08:48.020Z,8.85
2023-07-03T10:11:25.908Z,14.73
2023-07-03T10:13:54.059Z,11.32
2023-07-03T10:16:24.678Z,13.43
2023-07-03T10:18:56.519Z,11.43
2023-07-03T10:21:24.539Z,11.93
2023-07-03T10:23:52.965Z,11.45
2023-07-03T10:26:30.642Z,10.27
2023-07-03T10:29:38.527Z,13.98
2023-07-03T10:32:18.406Z,13.82
2023-07-03T10:35:03.668Z,12.82
2023-07-03T10:37:39.179Z,10.45
2023-07-03T10:40:16.849Z,10.35
2023-07-03T10:42:53.937Z,9.15
2023-07-03T10:45:22.759Z,11.65
2023-07-03T10:47:59.632Z,10.90
2023-07-03T10:51:04.342Z,13.25
2023-07-03T10:53:47.613Z,10.88
2023-07-03T10:56:33.312Z,11.35
2023-07-03T10:59:06.161Z,12.00
2023-07-03T11:02:00.803Z,8.73
2023-07-03T11:04:53.894Z,9.88
2023-07-03T11:07:46.427Z,13.18
2023-07-03T11:10:28.901Z,10.77
2023-07-03T11:13:42.804Z,11.65
2023-07-03T11:16:15.324Z,14.02
2023-07-03T11:25:06.259Z,9.23
2023-07-03T11:30:17.717Z,14.60
2023-07-03T11:32:46.415Z,9.80
2023-07-03T11:40:37.407Z,12.43
2023-07-03T11:43:30.059Z,14.05
2023-07-03T11:46:08.412Z,10.13
2023-07-03T11:48:43.626Z,9.45
2023-07-03T11:51:14.046Z,11.63
2023-07-03T11:53:48.655Z,11.75
2023-07-03T11:56:40.719Z,13.02
2023-07-03T12:02:17.661Z,10.00
2023-07-03T12:04:49.171Z,10.70
2023-07-03T12:07:20.879Z,11.10
2023-07-03T12:09:50.641Z,13.93
2023-07-03T12:12:22.269Z,10.85
2023-07-03T12:14:55.285Z,10.77
2023-07-03T12:17:35.509Z,10.27
2023-07-03T12:20:12.346Z,10.90
2023-07-03T12:22:51.730Z,8.95
2023-07-03T12:25:28.778Z,10.00
2023-07-03T12:28:10.502Z,10.25
2023-07-03T12:30:39.116Z,10.35
2023-07-03T12:33:07.623Z,14.07
2023-07-03T12:35:38.858Z,11.40
2023-07-03T12:38:09.068Z,14.95
2023-07-03T12:40:47.451Z,12.68
2023-07-03T12:43:19.504Z,8.90
2023-07-03T12:45:55.304Z,7.95
2023-07-03T12:48:24.515Z,11.10
2023-07-03T12:50:57.275Z,9.02
2023-07-03T12:53:29.489Z,8.05
2023-07-03T12:56:02.177Z,9.40
2023-07-03T12:58:30.299Z,10.27
2023-07-03T13:01:10.014Z,11.82
2023-07-03T13:03:42.737Z,10.98
2023-07-03T13:06:27.451Z,10.35
2023-07-03T13:08:55.916Z,6.78
2023-07-03T13:11:34.204Z,10.15
2023-07-03T13:14:16.461Z,9.02
2023-07-03T13:16:48.110Z,8.13
2023-07-03T13:22:08.462Z,8.88
2023-07-03T13:24:51.175Z,8.75
2023-07-03T13:27:27.211Z,7.25
2023-07-03T13:33:03.779Z,10.18
2023-07-03T13:35:33.684Z,12.50
2023-07-03T13:38:29.999Z,11.27
2023-07-03T13:40:59.703Z,8.68
2023-07-03T13:43:32.951Z,9.68
2023-07-03T13:46:00.850Z,7.75
2023-07-03T13:48:28.664Z,9.20
2023-07-03T13:50:58.527Z,8.75
2023-07-03T13:53:27.193Z,10.05
2023-07-03T13:55:55.162Z,7.35
2023-07-03T13:58:22.746Z,11.68
2023-07-03T14:00:50.386Z,9.70
2023-07-03T14:03:18.036Z,8.40
2023-07-03T14:05:45.678Z,9.85
2023-07-03T14:08:13.300Z,9.73
2023-07-03T14:10:40.768Z,8.52
2023-07-03T14:13:09.845Z,11.85
2023-07-03T14:15:38.343Z,12.90
2023-07-03T14:18:06.053Z,11.07
2023-07-03T14:20:33.523Z,10.77
2023-07-03T14:23:00.954Z,12.32
2023-07-03T14:25:29.151Z,9.48
2023-07-03T14:27:56.681Z,8.90
2023-07-03T14:30:24.128Z,8.35
2023-07-03T14:32:55.938Z,10.60
2023-07-03T14:35:24.857Z,16.45
2023-07-03T14:37:52.622Z,7.93
2023-07-03T14:40:20.427Z,11.05
2023-07-03T14:42:48.165Z,8.70
2023-07-03T14:45:16.088Z,9.23
2023-07-03T14:47:43.578Z,7.95
2023-07-03T14:50:12.816Z,9.73
2023-07-03T14:52:45.924Z,10.07
2023-07-03T14:55:14.802Z,8.65
2023-07-03T14:57:42.702Z,8.73
2023-07-03T15:00:10.893Z,11.23
2023-07-03T15:02:39.277Z,7.57
2023-07-03T15:05:08.010Z,7.07
2023-07-03T15:07:38.640Z,10.40
2023-07-03T15:10:06.393Z,7.85
2023-07-03T15:12:33.952Z,7.72
2023-07-03T15:15:01.375Z,7.53
2023-07-03T15:17:28.886Z,11.00
2023-07-03T15:19:56.495Z,4.97
2023-07-03T15:22:24.090Z,7.35
2023-07-03T15:24:51.455Z,6.47
2023-07-03T15:27:18.841Z,9.48
2023-07-03T15:29:47.794Z,5.72
2023-07-03T15:32:15.318Z,8.10
2023-07-03T15:34:42.997Z,11.23
2023-07-03T15:37:10.374Z,7.93
2023-07-03T15:39:38.246Z,6.65
2023-07-03T15:42:05.962Z,7.03
2023-07-03T15:44:33.351Z,7.55
2023-07-03T15:47:00.735Z,7.05
2023-07-03T15:49:31.320Z,5.68
2023-07-03T15:51:59.506Z,7.78
2023-07-03T15:54:27.230Z,7.43
2023-07-03T15:56:55.152Z,5.07
2023-07-03T15:59:22.553Z,7.25
2023-07-03T16:01:50.727Z,7.07
2023-07-03T16:04:18.253Z,7.45
2023-07-03T16:06:46.931Z,7.75
2023-07-03T16:09:15.891Z,9.48
2023-07-03T16:11:43.358Z,7.53
2023-07-03T16:14:10.781Z,5.55
2023-07-03T16:16:38.247Z,6.85
2023-07-03T16:19:05.716Z,6.72
2023-07-03T16:21:34.756Z,6.50
2023-07-03T16:24:04.423Z,7.22
2023-07-03T16:26:32.199Z,8.48
2023-07-03T16:28:59.873Z,7.38
2023-07-03T16:31:28.867Z,5.82
2023-07-03T16:34:00.490Z,7.38
2023-07-03T16:36:29.788Z,8.00
2023-07-03T16:39:00.618Z,6.78
2023-07-03T16:41:30.192Z,7.73
2023-07-03T16:43:58.639Z,6.70
2023-07-03T16:46:27.846Z,7.75
2023-07-03T16:48:56.632Z,10.55
2023-07-03T16:51:24.874Z,6.65
2023-07-03T16:53:52.421Z,8.95
2023-07-03T16:56:25.802Z,7.45
2023-07-03T16:58:55.528Z,9.85
2023-07-03T17:01:25.226Z,5.15
2023-07-03T17:03:54.585Z,8.32
2023-07-03T17:06:26.224Z,8.07
2023-07-03T17:11:23.212Z,6.40
2023-07-03T17:13:50.864Z,7.55
2023-07-03T17:16:19.011Z,7.88
2023-07-03T17:18:46.457Z,7.22
2023-07-03T17:21:14.109Z,7.68
2023-07-03T17:23:42.240Z,9.93
2023-07-03T17:26:12.100Z,9.65
2023-07-03T17:28:40.082Z,6.43
2023-07-03T17:31:07.601Z,5.57
2023-07-03T17:33:36.224Z,8.82
2023-07-03T17:36:03.711Z,7.32
2023-07-03T17:38:31.469Z,5.18
2023-07-03T17:40:58.909Z,6.13
2023-07-03T17:43:26.336Z,6.15
2023-07-03T17:45:54.832Z,6.82
2023-07-03T17:48:22.794Z,5.35
2023-07-03T17:50:51.130Z,4.53
2023-07-03T17:53:22.243Z,6.72
2023-07-03T17:55:53.581Z,8.18
2023-07-03T17:58:22.660Z,4.40
2023-07-03T18:00:54.620Z,5.40
2023-07-03T18:03:23.388Z,3.83
2023-07-03T18:05:56.207Z,5.65
2023-07-03T18:08:24.392Z,6.50
2023-07-03T18:10:52.018Z,6.03
2023-07-03T18:13:19.535Z,5.07
2023-07-03T18:15:49.451Z,6.28
2023-07-03T18:18:18.037Z,10.27
2023-07-03T18:20:46.225Z,6.35
2023-07-03T18:23:13.820Z,5.20
2023-07-03T18:25:41.562Z,4.50
2023-07-03T18:28:09.459Z,6.65
2023-07-03T18:30:36.830Z,5.85
2023-07-03T18:33:04.371Z,6.22
2023-07-03T18:35:38.223Z,4.90
2023-07-03T18:38:06.239Z,4.90
2023-07-03T18:40:33.759Z,7.15
2023-07-03T18:43:01.148Z,5.00
2023-07-03T18:45:28.562Z,5.30
2023-07-03T18:47:55.927Z,7.80
2023-07-03T18:50:23.399Z,6.90
2023-07-03T18:52:53.718Z,8.50
2023-07-03T18:55:22.539Z,6.05
2023-07-03T18:57:50.405Z,4.95
2023-07-03T19:00:18.000Z,4.95
2023-07-03T19:02:46.434Z,6.47
2023-07-03T19:05:14.788Z,6.43
2023-07-03T19:07:42.329Z,4.53
2023-07-03T19:10:17.801Z,7.13
2023-07-03T19:12:46.807Z,5.50
2023-07-03T19:15:14.322Z,7.30
2023-07-03T19:17:41.823Z,6.18
2023-07-03T19:20:11.543Z,6.05
2023-07-03T19:22:39.308Z,6.07
2023-07-03T19:25:07.642Z,7.60
2023-07-03T19:27:35.701Z,7.47
2023-07-03T19:30:03.693Z,4.63
2023-07-03T19:32:31.191Z,8.20
2023-07-03T19:34:58.631Z,7.63
2023-07-03T19:37:26.001Z,6.47
2023-07-03T19:39:53.326Z,11.40
2023-07-03T19:42:20.718Z,8.57
2023-07-03T19:44:48.073Z,7.63
2023-07-03T19:47:15.725Z,7.38
2023-07-03T19:49:43.335Z,9.60
2023-07-03T19:52:12.073Z,6.68
2023-07-03T19:54:39.743Z,7.75
2023-07-03T19:57:07.206Z,7.68
2023-07-03T19:59:34.731Z,9.95
2023-07-03T20:02:02.590Z,8.32
2023-07-03T20:04:30.796Z,7.72
2023-07-03T20:07:00.037Z,7.15
2023-07-03T20:09:27.775Z,8.57
2023-07-03T20:11:58.246Z,7.47
2023-07-03T20:14:25.699Z,7.65
2023-07-03T20:16:53.070Z,11.10
2023-07-03T20:19:20.683Z,6.28
2023-07-03T20:21:48.710Z,6.88
2023-07-03T20:24:16.192Z,7.00
2023-07-03T20:26:43.559Z,7.15
2023-07-03T20:29:10.973Z,6.72
2023-07-03T20:31:38.649Z,7.28
2023-07-03T20:34:06.070Z,8.20
2023-07-03T20:36:35.478Z,6.72
2023-07-03T20:39:05.871Z,7.60
2023-07-03T20:41:33.412Z,6.18
2023-07-03T20:44:05.091Z,7.47
2023-07-03T20:46:33.348Z,6.50
2023-07-03T20:49:01.339Z,8.20
2023-07-03T20:51:33.658Z,6.30
2023-07-03T20:54:04.265Z,11.05
2023-07-03T20:56:37.524Z,5.97
2023-07-03T20:59:06.266Z,10.55
2023-07-03T21:01:36.652Z,6.25
2023-07-03T21:04:05.933Z,11.23
2023-07-03T21:06:35.719Z,9.75
2023-07-03T21:09:06.031Z,6.90
2023-07-03T21:11:35.263Z,9.35
2023-07-03T21:14:05.623Z,11.93
2023-07-03T21:16:35.718Z,13.13
2023-07-03T21:19:03.973Z,7.32
2023-07-03T21:21:32.842Z,6.88
2023-07-03T21:24:02.437Z,6.85
2023-07-03T21:26:30.758Z,5.70
2023-07-03T21:28:58.450Z,5.75
2023-07-03T21:31:33.851Z,8.23
2023-07-03T21:34:01.883Z,8.85
2023-07-03T21:36:31.357Z,7.00
2023-07-03T21:39:00.550Z,7.72
2023-07-03T21:41:30.997Z,7.55
2023-07-03T21:44:02.109Z,8.35
2023-07-03T21:46:32.411Z,7.27
2023-07-03T21:48:59.980Z,8.13
2023-07-03T21:51:29.356Z,7.13
2023-07-03T21:53:57.699Z,8.95
2023-07-03T21:56:33.647Z,7.25
2023-07-03T21:59:03.748Z,8.15
2023-07-03T22:01:34.539Z,6.85
2023-07-03T22:04:04.059Z,9.57
2023-07-03T22:06:31.797Z,6.28
2023-07-03T22:09:00.008Z,8.77
2023-07-03T22:11:28.567Z,8.23
2023-07-03T22:13:56.613Z,5.05
2023-07-03T22:16:24.384Z,7.68
2023-07-03T22:18:51.917Z,8.38
2023-07-03T22:21:19.758Z,5.97
2023-07-03T22:23:51.761Z,8.70
2023-07-03T22:26:20.119Z,8.48
2023-07-03T22:28:48.309Z,7.50
2023-07-03T22:31:16.831Z,9.00
2023-07-03T22:33:44.467Z,8.15
2023-07-03T22:36:13.104Z,7.18
2023-07-03T22:38:40.566Z,8.68
2023-07-03T22:41:10.117Z,6.13
2023-07-03T22:43:38.068Z,7.22
2023-07-03T22:46:06.817Z,7.20
2023-07-03T22:48:34.595Z,8.15
2023-07-03T22:51:06.375Z,9.95
2023-07-03T22:53:35.075Z,5.05
2023-07-03T22:56:08.792Z,7.63
2023-07-03T22:58:36.338Z,9.98
2023-07-03T23:01:11.435Z,10.68
2023-07-03T23:03:42.293Z,5.40
2023-07-03T23:06:10.160Z,10.38
2023-07-03T23:08:38.076Z,8.52
2023-07-03T23:11:06.125Z,11.93
2023-07-03T23:13:33.535Z,8.27
2023-07-03T23:16:05.821Z,9.65
2023-07-03T23:18:34.826Z,8.88
2023-07-03T23:21:06.534Z,8.13
2023-07-03T23:23:35.159Z,7.15
2023-07-03T23:26:13.342Z,9.68
2023-07-03T23:28:43.201Z,9.30
2023-07-03T23:31:13.357Z,7.47
2023-07-03T23:33:42.487Z,8.02
2023-07-03T23:36:14.247Z,6.20
2023-07-03T23:38:43.039Z,7.65
2023-07-03T23:41:11.630Z,5.15
2023-07-03T23:43:40.467Z,7.65
2023-07-03T23:46:27.922Z,5.80
2023-07-03T23:48:55.390Z,8.63
2023-07-03T23:51:22.987Z,6.80
2023-07-03T23:53:50.906Z,6.43
2023-07-03T23:56:19.752Z,5.57
2023-07-03T23:58:48.727Z,7.53
